createdAt,value
2023-12-11T00:00:51.453Z,6.50
2023-12-11T00:03:39.979Z,5.50
2023-12-11T00:06:08.965Z,5.80
2023-12-11T00:08:37.348Z,5.10
2023-12-11T00:11:05.716Z,6.20
2023-12-11T00:13:34.099Z,6.80
2023-12-11T00:16:02.421Z,5.90
2023-12-11T00:18:31.006Z,5.70
2023-12-11T00:21:01.486Z,6.30
2023-12-11T00:23:30.271Z,6.90
2023-12-11T00:25:59.284Z,6.80
2023-12-11T00:28:27.545Z,5.90
2023-12-11T00:30:55.950Z,6.70
2023-12-11T00:33:24.408Z,5.00
2023-12-11T00:35:52.987Z,5.90
2023-12-11T00:38:21.363Z,5.30
2023-12-11T00:40:49.763Z,5.20
2023-12-11T00:43:19.594Z,5.70
2023-12-11T00:45:47.939Z,5.60
2023-12-11T00:48:16.380Z,6.10
2023-12-11T00:50:44.788Z,5.30
2023-12-11T00:53:13.064Z,5.30
2023-12-11T00:55:41.441Z,6.00
2023-12-11T00:58:10.478Z,5.00
2023-12-11T01:00:38.949Z,5.40
2023-12-11T01:03:07.561Z,5.30
2023-12-11T01:05:36.083Z,5.70
2023-12-11T01:08:04.838Z,5.20
2023-12-11T01:10:33.155Z,4.90
2023-12-11T01:13:01.577Z,5.30
2023-12-11T01:15:29.940Z,5.00
2023-12-11T01:17:58.338Z,5.20
2023-12-11T01:20:26.759Z,4.70
2023-12-11T01:22:55.133Z,5.40
2023-12-11T01:25:23.621Z,4.30
2023-12-11T01:27:51.932Z,4.60
2023-12-11T01:30:21.101Z,4.20
2023-12-11T01:32:49.617Z,4.90
2023-12-11T01:35:18.050Z,4.60
2023-12-11T01:37:46.333Z,4.50
2023-12-11T01:40:14.813Z,4.00
2023-12-11T01:42:43.242Z,4.10
2023-12-11T01:45:11.972Z,3.60
2023-12-11T01:47:40.968Z,4.50
2023-12-11T01:50:09.966Z,4.10
2023-12-11T01:52:39.154Z,4.30
2023-12-11T01:55:08.210Z,4.90
2023-12-11T01:57:36.693Z,4.10
2023-12-11T02:00:07.109Z,4.80
2023-12-11T02:02:36.668Z,4.00
2023-12-11T02:05:05.896Z,4.30
2023-12-11T02:07:34.445Z,4.50
2023-12-11T02:10:02.987Z,3.80
2023-12-11T02:12:31.331Z,5.00
2023-12-11T02:14:59.782Z,4.50
2023-12-11T02:17:28.468Z,4.40
2023-12-11T02:19:56.998Z,4.60
2023-12-11T02:22:26.266Z,4.60
2023-12-11T02:25:01.997Z,4.90
2023-12-11T02:27:31.761Z,3.90
2023-12-11T02:30:00.506Z,4.90
2023-12-11T02:32:28.942Z,5.00
2023-12-11T02:34:57.499Z,4.40
2023-12-11T02:37:25.843Z,5.20
2023-12-11T02:39:54.270Z,5.30
2023-12-11T02:42:22.905Z,5.20
2023-12-11T02:44:51.178Z,5.50
2023-12-11T02:47:19.449Z,4.90
2023-12-11T02:49:47.903Z,5.80
2023-12-11T02:52:16.419Z,4.90
2023-12-11T02:54:44.915Z,5.40
2023-12-11T02:57:13.134Z,5.10
2023-12-11T02:59:41.460Z,5.30
2023-12-11T03:02:09.827Z,6.10
2023-12-11T03:04:38.432Z,5.90
2023-12-11T03:07:07.023Z,5.10
2023-12-11T03:09:35.399Z,5.00
2023-12-11T03:12:04.298Z,5.60
2023-12-11T03:14:32.537Z,5.60
2023-12-11T03:17:00.916Z,5.80
2023-12-11T03:19:29.401Z,5.80
2023-12-11T03:21:57.999Z,6.20
2023-12-11T03:24:26.354Z,5.50
2023-12-11T03:26:54.741Z,6.50
2023-12-11T03:29:22.955Z,6.40
2023-12-11T03:31:51.101Z,6.60
2023-12-11T03:34:19.381Z,6.10
2023-12-11T03:36:48.073Z,6.10
2023-12-11T03:39:16.934Z,6.90
2023-12-11T03:41:46.344Z,5.70
2023-12-11T03:44:14.713Z,6.50
2023-12-11T03:46:43.004Z,6.50
2023-12-11T03:49:11.624Z,7.00
2023-12-11T03:51:39.996Z,6.40
2023-12-11T03:54:08.841Z,6.00
2023-12-11T03:56:37.117Z,6.00
2023-12-11T03:59:05.389Z,6.20
2023-12-11T04:01:34.070Z,6.00
2023-12-11T04:04:02.779Z,8.00
2023-12-11T04:06:31.896Z,16.70
2023-12-11T04:09:00.439Z,20.60
2023-12-11T04:11:28.716Z,6.10
2023-12-11T04:13:57.094Z,6.00
2023-12-11T04:16:25.369Z,7.10
2023-12-11T04:18:55.329Z,9.70
2023-12-11T04:21:24.375Z,6.70
2023-12-11T04:23:52.656Z,7.40
2023-12-11T04:26:20.933Z,8.10
2023-12-11T04:28:49.312Z,7.80
2023-12-11T04:31:17.987Z,8.10
2023-12-11T04:33:46.551Z,7.70
2023-12-11T04:36:15.079Z,8.00
2023-12-11T04:38:43.340Z,7.70
2023-12-11T04:41:12.217Z,7.10
2023-12-11T04:43:40.505Z,6.80
2023-12-11T04:46:08.869Z,7.70
2023-12-11T04:48:37.612Z,7.80
2023-12-11T04:51:06.145Z,7.50
2023-12-11T04:53:34.548Z,10.00
2023-12-11T04:56:09.876Z,11.40
2023-12-11T04:58:38.146Z,9.30
2023-12-11T05:01:06.976Z,9.00
2023-12-11T05:03:35.563Z,10.50
2023-12-11T05:06:04.610Z,9.30
2023-12-11T05:08:33.098Z,8.80
2023-12-11T05:11:01.459Z,10.40
2023-12-11T05:13:29.735Z,13.20
2023-12-11T05:15:58.261Z,10.60
2023-12-11T05:18:26.706Z,9.20
2023-12-11T05:20:55.184Z,8.60
2023-12-11T05:23:23.554Z,9.60
2023-12-11T05:25:51.931Z,8.90
2023-12-11T05:28:20.495Z,9.40
2023-12-11T05:30:48.808Z,10.80
2023-12-11T05:33:17.324Z,14.70
2023-12-11T05:35:45.751Z,10.40
2023-12-11T05:38:14.036Z,10.90
2023-12-11T05:40:42.557Z,9.50
2023-12-11T05:43:11.062Z,10.00
2023-12-11T05:45:39.407Z,9.80
2023-12-11T05:48:09.124Z,9.70
2023-12-11T05:50:39.599Z,21.20
2023-12-11T05:53:09.627Z,9.50
2023-12-11T05:55:38.317Z,10.30
2023-12-11T05:58:06.677Z,9.50
2023-12-11T06:00:35.466Z,9.50
2023-12-11T06:03:04.056Z,9.40
2023-12-11T06:05:32.710Z,10.60
2023-12-11T06:08:01.127Z,10.90
2023-12-11T06:10:30.870Z,12.80
2023-12-11T06:12:59.489Z,11.30
2023-12-11T06:15:28.338Z,11.60
2023-12-11T06:17:56.811Z,17.80
2023-12-11T06:20:25.374Z,10.50
2023-12-11T06:22:53.648Z,12.20
2023-12-11T06:25:21.986Z,10.20
2023-12-11T06:27:52.794Z,10.10
2023-12-11T06:30:22.469Z,11.80
2023-12-11T06:32:50.871Z,10.00
2023-12-11T06:35:19.345Z,11.50
2023-12-11T06:37:47.705Z,11.30
2023-12-11T06:40:16.171Z,9.60
2023-12-11T06:42:44.721Z,11.30
2023-12-11T06:45:13.871Z,10.60
2023-12-11T06:47:42.750Z,10.70
2023-12-11T06:50:11.120Z,11.90
2023-12-11T06:52:39.831Z,14.90
2023-12-11T06:55:09.067Z,15.90
2023-12-11T06:57:37.433Z,19.50
2023-12-11T07:00:07.786Z,14.60
2023-12-11T07:02:36.280Z,12.50
2023-12-11T07:05:05.401Z,12.80
2023-12-11T07:07:34.238Z,13.40
2023-12-11T07:10:06.158Z,17.70
2023-12-11T07:12:35.184Z,16.30
2023-12-11T07:15:03.826Z,16.00
2023-12-11T07:17:35.453Z,13.50
2023-12-11T07:20:06.941Z,13.20
2023-12-11T07:22:36.235Z,16.10
2023-12-11T07:25:06.361Z,18.70
2023-12-11T07:27:35.543Z,16.40
2023-12-11T07:30:05.706Z,16.50
2023-12-11T07:32:34.076Z,14.20
2023-12-11T07:35:02.661Z,12.70
2023-12-11T07:37:31.538Z,13.90
2023-12-11T07:40:00.630Z,13.40
2023-12-11T07:42:29.501Z,16.90
2023-12-11T07:44:57.877Z,17.00
2023-12-11T07:47:26.427Z,18.10
2023-12-11T07:49:54.768Z,18.70
2023-12-11T07:52:23.427Z,21.30
2023-12-11T07:54:51.808Z,20.10
2023-12-11T07:57:20.280Z,16.90
2023-12-11T07:59:48.764Z,15.00
2023-12-11T08:02:17.075Z,14.50
2023-12-11T08:04:46.031Z,12.90
2023-12-11T08:07:18.439Z,15.40
2023-12-11T08:09:46.923Z,14.30
2023-12-11T08:12:15.383Z,12.30
2023-12-11T08:14:43.683Z,12.00
2023-12-11T08:17:12.165Z,13.20
2023-12-11T08:19:40.753Z,12.10
2023-12-11T08:22:09.207Z,13.40
2023-12-11T08:24:38.101Z,13.10
2023-12-11T08:27:08.850Z,11.50
2023-12-11T08:29:38.232Z,11.90
2023-12-11T08:32:10.110Z,13.00
2023-12-11T08:34:39.575Z,13.20
2023-12-11T08:37:09.976Z,13.90
2023-12-11T08:39:39.640Z,13.50
2023-12-11T08:42:08.112Z,17.50
2023-12-11T08:44:36.473Z,19.90
2023-12-11T08:47:04.948Z,18.30
2023-12-11T08:49:33.346Z,23.00
2023-12-11T08:52:03.553Z,13.80
2023-12-11T08:54:31.929Z,13.70
2023-12-11T08:57:00.217Z,15.30
2023-12-11T08:59:28.702Z,14.30
2023-12-11T09:01:57.286Z,15.00
2023-12-11T09:04:25.902Z,14.90
2023-12-11T09:06:54.368Z,14.70
2023-12-11T09:09:22.607Z,14.80
2023-12-11T09:11:51.231Z,14.30
2023-12-11T09:14:19.585Z,15.20
2023-12-11T09:16:47.951Z,16.90
2023-12-11T09:19:16.362Z,16.50
2023-12-11T09:21:44.848Z,15.70
2023-12-11T09:24:13.806Z,16.80
2023-12-11T09:26:42.182Z,14.70
2023-12-11T09:29:10.657Z,16.10
2023-12-11T09:31:39.547Z,14.90
2023-12-11T09:34:08.378Z,16.40
2023-12-11T09:36:37.064Z,16.00
2023-12-11T09:39:06.024Z,16.50
2023-12-11T09:41:35.993Z,18.40
2023-12-11T09:44:05.025Z,16.40
2023-12-11T09:46:53.270Z,16.40
2023-12-11T09:49:22.347Z,18.50
2023-12-11T09:51:50.750Z,16.70
2023-12-11T09:54:19.216Z,19.00
2023-12-11T09:56:48.591Z,16.40
2023-12-11T09:59:17.409Z,18.60
2023-12-11T10:01:48.374Z,19.00
2023-12-11T10:04:16.751Z,18.80
2023-12-11T10:06:45.056Z,16.60
2023-12-11T10:09:35.138Z,20.80
2023-12-11T10:12:05.371Z,18.10
2023-12-11T10:14:34.816Z,19.80
2023-12-11T10:17:17.175Z,17.50
2023-12-11T10:19:45.675Z,17.30
2023-12-11T10:22:27.998Z,18.70
2023-12-11T10:24:56.713Z,19.40
2023-12-11T10:27:28.713Z,18.40
2023-12-11T10:30:24.582Z,17.10
2023-12-11T10:33:02.885Z,17.40
2023-12-11T10:35:32.919Z,19.30
2023-12-11T10:38:02.821Z,19.20
2023-12-11T10:40:50.757Z,20.00
2023-12-11T10:43:19.995Z,17.90
2023-12-11T10:45:51.777Z,17.00
2023-12-11T10:48:22.771Z,17.40
2023-12-11T10:50:52.049Z,18.50
2023-12-11T10:53:20.811Z,16.40
2023-12-11T10:55:50.969Z,18.40
2023-12-11T10:58:20.848Z,17.60
2023-12-11T11:00:49.465Z,18.20
2023-12-11T11:03:20.020Z,17.70
2023-12-11T11:05:51.617Z,19.50
2023-12-11T11:08:47.377Z,24.40
2023-12-11T11:11:33.250Z,19.60
2023-12-11T11:14:13.939Z,22.00
2023-12-11T11:16:54.842Z,22.60
2023-12-11T11:19:24.081Z,19.90
2023-12-11T11:22:01.638Z,17.50
2023-12-11T11:24:30.430Z,18.70
2023-12-11T11:26:58.909Z,22.40
2023-12-11T11:29:43.518Z,19.60
2023-12-11T11:32:13.168Z,19.70
2023-12-11T11:34:41.405Z,17.30
2023-12-11T11:37:14.862Z,19.50
2023-12-11T11:40:04.475Z,21.80
2023-12-11T11:42:34.525Z,19.30
2023-12-11T11:45:05.540Z,18.90
2023-12-11T11:47:34.336Z,19.90
2023-12-11T11:50:11.418Z,18.20
2023-12-11T11:52:43.462Z,18.50
2023-12-11T11:55:25.575Z,20.60
2023-12-11T11:57:54.735Z,18.80
2023-12-11T12:00:29.473Z,18.60
2023-12-11T12:03:04.724Z,20.20
2023-12-11T12:05:33.194Z,19.30
2023-12-11T12:08:02.134Z,36.20
2023-12-11T12:10:30.449Z,19.00
2023-12-11T12:13:00.378Z,18.00
2023-12-11T12:15:29.351Z,18.50
2023-12-11T12:18:13.957Z,19.60
2023-12-11T12:20:42.423Z,17.80
2023-12-11T12:23:11.564Z,17.50
2023-12-11T12:25:39.864Z,17.20
2023-12-11T12:28:15.194Z,16.50
2023-12-11T12:30:44.171Z,18.10
2023-12-11T12:33:13.708Z,19.40
2023-12-11T12:35:45.431Z,18.20
2023-12-11T12:38:16.010Z,22.20
2023-12-11T12:40:44.350Z,20.60
2023-12-11T12:43:15.813Z,20.20
2023-12-11T12:45:44.298Z,22.00
2023-12-11T12:48:14.062Z,19.10
2023-12-11T12:50:42.530Z,20.50
2023-12-11T12:53:13.912Z,18.60
2023-12-11T12:55:42.269Z,18.10
2023-12-11T12:58:14.853Z,18.00
2023-12-11T13:00:45.857Z,17.80
2023-12-11T13:03:14.568Z,18.90
2023-12-11T13:05:47.171Z,18.30
2023-12-11T13:08:16.282Z,19.50
2023-12-11T13:10:56.612Z,19.70
2023-12-11T13:13:28.316Z,19.60
2023-12-11T13:15:57.833Z,18.20
2023-12-11T13:18:26.725Z,20.20
2023-12-11T13:20:55.446Z,19.70
2023-12-11T13:23:25.238Z,17.30
2023-12-11T13:25:53.455Z,19.60
2023-12-11T13:28:21.758Z,19.60
2023-12-11T13:30:49.873Z,16.70
2023-12-11T13:33:18.163Z,19.90
2023-12-11T13:35:46.484Z,18.60
2023-12-11T13:38:14.842Z,19.90
2023-12-11T13:40:43.246Z,18.40
2023-12-11T13:43:13.008Z,20.20
2023-12-11T13:45:41.496Z,19.00
2023-12-11T13:48:09.911Z,20.30
2023-12-11T13:50:38.240Z,17.60
2023-12-11T13:53:06.391Z,16.70
2023-12-11T13:55:34.586Z,16.80
2023-12-11T13:58:02.846Z,20.00
2023-12-11T14:00:31.175Z,19.10
2023-12-11T14:03:03.749Z,18.30
2023-12-11T14:05:34.597Z,18.10
2023-12-11T14:08:04.521Z,23.30
2023-12-11T14:10:37.011Z,22.10
2023-12-11T14:13:06.218Z,30.80
2023-12-11T14:15:34.786Z,28.60
2023-12-11T14:18:04.781Z,18.20
2023-12-11T14:20:33.056Z,21.50
2023-12-11T14:23:03.696Z,18.00
2023-12-11T14:25:31.883Z,17.20
2023-12-11T14:28:06.102Z,17.60
2023-12-11T14:30:38.376Z,16.50
2023-12-11T14:33:08.252Z,16.50
2023-12-11T14:35:37.544Z,17.80
2023-12-11T14:38:06.100Z,17.10
2023-12-11T14:40:34.542Z,17.60
2023-12-11T14:43:03.681Z,21.30
2023-12-11T14:45:32.148Z,20.30
2023-12-11T14:48:00.450Z,22.40
2023-12-11T14:50:28.733Z,20.80
2023-12-11T14:52:56.914Z,45.10
2023-12-11T14:55:26.196Z,22.90
2023-12-11T14:57:54.929Z,19.10
2023-12-11T15:00:23.321Z,18.80
2023-12-11T15:02:51.572Z,19.30
2023-12-11T15:05:20.651Z,19.60
2023-12-11T15:07:48.979Z,20.30
2023-12-11T15:10:17.240Z,115.90
2023-12-11T15:12:45.443Z,23.90
2023-12-11T15:15:14.065Z,41.20
2023-12-11T15:17:42.253Z,76.30
2023-12-11T15:20:11.713Z,50.60
2023-12-11T15:22:40.067Z,25.60
2023-12-11T15:25:11.118Z,29.50
2023-12-11T15:27:39.370Z,27.40
2023-12-11T15:30:09.467Z,38.00
2023-12-11T15:32:38.024Z,28.90
2023-12-11T15:35:07.162Z,43.20
2023-12-11T15:37:36.054Z,28.70
2023-12-11T15:40:08.492Z,21.90
2023-12-11T15:42:39.372Z,19.40
2023-12-11T15:45:07.965Z,30.40
2023-12-11T15:47:59.827Z,21.70
2023-12-11T15:50:25.662Z,23.00
2023-12-11T15:52:53.946Z,30.20
2023-12-11T15:55:22.236Z,27.90
2023-12-11T15:57:50.588Z,22.10
2023-12-11T16:00:19.102Z,19.40
2023-12-11T16:02:47.666Z,29.80
2023-12-11T16:05:16.210Z,23.00
2023-12-11T16:07:44.698Z,23.90
2023-12-11T16:10:12.933Z,25.20
2023-12-11T16:12:41.188Z,36.40
2023-12-11T16:15:09.984Z,31.30
2023-12-11T16:17:38.178Z,21.80
2023-12-11T16:20:07.385Z,24.90
2023-12-11T16:22:36.186Z,26.50
2023-12-11T16:25:04.731Z,23.10
2023-12-11T16:27:33.256Z,23.60
2023-12-11T16:30:01.666Z,23.10
2023-12-11T16:32:33.082Z,25.90
2023-12-11T16:35:01.778Z,24.10
2023-12-11T16:37:30.168Z,19.90
2023-12-11T16:39:58.531Z,18.80
2023-12-11T16:42:28.751Z,21.60
2023-12-11T16:44:57.189Z,16.60
2023-12-11T16:47:25.335Z,19.30
2023-12-11T16:50:02.083Z,17.20
2023-12-11T16:52:35.198Z,17.20
2023-12-11T16:55:04.050Z,20.80
2023-12-11T16:57:32.468Z,20.10
2023-12-11T17:00:00.733Z,20.00
2023-12-11T17:02:29.618Z,18.70
2023-12-11T17:04:58.056Z,26.20
2023-12-11T17:07:26.450Z,19.70
2023-12-11T17:09:55.550Z,28.90
2023-12-11T17:12:23.708Z,27.60
2023-12-11T17:14:53.982Z,19.70
2023-12-11T17:17:23.483Z,30.90
2023-12-11T17:19:51.792Z,25.30
2023-12-11T17:22:20.090Z,31.20
2023-12-11T17:24:49.494Z,35.20
2023-12-11T17:27:17.788Z,27.10
2023-12-11T17:29:45.971Z,20.30
2023-12-11T17:32:14.398Z,20.30
2023-12-11T17:34:43.357Z,20.80
2023-12-11T17:37:13.634Z,29.60
2023-12-11T17:39:42.326Z,25.60
2023-12-11T17:42:10.676Z,21.40
2023-12-11T17:44:39.057Z,22.00
2023-12-11T17:47:07.328Z,22.90
2023-12-11T17:49:35.737Z,18.30
2023-12-11T17:52:04.738Z,23.70
2023-12-11T17:54:33.488Z,22.10
2023-12-11T17:57:04.880Z,22.00
2023-12-11T17:59:33.221Z,24.00
2023-12-11T18:02:01.567Z,23.20
2023-12-11T18:04:30.074Z,22.30
2023-12-11T18:06:58.468Z,25.40
2023-12-11T18:09:29.395Z,19.30
2023-12-11T18:11:59.708Z,20.90
2023-12-11T18:14:28.304Z,22.40
2023-12-11T18:16:56.767Z,20.20
2023-12-11T18:19:25.308Z,19.70
2023-12-11T18:21:54.336Z,19.30
2023-12-11T18:24:23.245Z,21.50
2023-12-11T18:26:51.519Z,24.10
2023-12-11T18:29:22.278Z,22.70
2023-12-11T18:31:52.471Z,21.30
2023-12-11T18:34:21.346Z,21.40
2023-12-11T18:36:49.689Z,20.10
2023-12-11T18:39:18.116Z,23.70
2023-12-11T18:41:46.905Z,29.50
2023-12-11T18:44:15.186Z,24.40
2023-12-11T18:46:43.558Z,21.60
2023-12-11T18:49:13.966Z,21.10
2023-12-11T18:51:42.475Z,21.00
2023-12-11T18:54:11.560Z,20.70
2023-12-11T18:56:40.449Z,18.90
2023-12-11T18:59:08.729Z,18.10
2023-12-11T19:01:37.158Z,16.80
2023-12-11T19:04:07.521Z,22.20
2023-12-11T19:06:36.236Z,23.30
2023-12-11T19:09:05.373Z,21.60
2023-12-11T19:11:33.696Z,21.80
2023-12-11T19:14:06.881Z,23.00
2023-12-11T19:16:35.157Z,21.40
2023-12-11T19:19:03.565Z,23.60
2023-12-11T19:21:32.020Z,21.80
2023-12-11T19:24:00.921Z,24.00
2023-12-11T19:26:29.211Z,21.80
2023-12-11T19:28:57.884Z,21.10
2023-12-11T19:31:26.808Z,20.90
2023-12-11T19:33:55.421Z,20.40
2023-12-11T19:36:23.828Z,19.50
2023-12-11T19:38:54.686Z,21.80
2023-12-11T19:41:22.933Z,22.90
2023-12-11T19:43:51.526Z,26.10
2023-12-11T19:46:20.135Z,23.90
2023-12-11T19:48:48.654Z,23.80
2023-12-11T19:51:17.061Z,23.80
2023-12-11T19:53:45.338Z,25.50
2023-12-11T19:56:23.649Z,25.00
2023-12-11T19:58:52.760Z,22.90
2023-12-11T20:01:34.569Z,24.60
2023-12-11T20:04:03.447Z,26.30
2023-12-11T20:06:32.520Z,24.80
2023-12-11T20:09:00.809Z,23.90
2023-12-11T20:11:31.937Z,23.50
2023-12-11T20:14:00.738Z,24.70
2023-12-11T20:16:30.686Z,23.10
2023-12-11T20:18:59.331Z,22.70
2023-12-11T20:21:27.827Z,20.60
2023-12-11T20:23:56.084Z,19.60
2023-12-11T20:26:24.820Z,22.90
2023-12-11T20:28:53.151Z,23.90
2023-12-11T20:31:21.474Z,22.90
2023-12-11T20:33:50.197Z,22.90
2023-12-11T20:36:20.174Z,21.70
2023-12-11T20:38:48.820Z,22.10
2023-12-11T20:41:21.795Z,22.10
2023-12-11T20:43:51.880Z,21.80
2023-12-11T20:46:25.148Z,22.00
2023-12-11T20:48:54.938Z,19.50
2023-12-11T20:51:23.916Z,24.40
2023-12-11T20:53:52.802Z,24.40
2023-12-11T20:56:22.419Z,24.00
2023-12-11T20:58:52.433Z,24.00
2023-12-11T21:01:30.715Z,26.40
2023-12-11T21:04:01.084Z,26.90
2023-12-11T21:06:30.869Z,24.80
2023-12-11T21:09:01.085Z,25.80
2023-12-11T21:11:30.192Z,24.00
2023-12-11T21:13:59.899Z,23.00
2023-12-11T21:16:28.539Z,24.20
2023-12-11T21:18:57.279Z,21.40
2023-12-11T21:21:26.671Z,20.10
2023-12-11T21:23:55.353Z,22.70
2023-12-11T21:26:25.032Z,24.60
2023-12-11T21:28:54.526Z,22.60
2023-12-11T21:31:29.898Z,24.30
2023-12-11T21:33:59.121Z,22.50
2023-12-11T21:36:31.045Z,22.70
2023-12-11T21:39:00.540Z,21.80
2023-12-11T21:41:29.061Z,22.00
2023-12-11T21:44:04.471Z,20.60
2023-12-11T21:46:32.729Z,14.60
2023-12-11T21:49:02.765Z,16.10
2023-12-11T21:51:34.015Z,17.20
2023-12-11T21:54:02.734Z,18.80
2023-12-11T21:56:30.998Z,20.40
2023-12-11T21:58:59.584Z,21.90
2023-12-11T22:01:28.031Z,20.10
2023-12-11T22:03:56.445Z,20.70
2023-12-11T22:06:25.141Z,19.10
2023-12-11T22:08:53.507Z,21.70
2023-12-11T22:11:23.426Z,19.50
2023-12-11T22:13:52.203Z,17.50
2023-12-11T22:16:20.373Z,17.10
2023-12-11T22:18:49.041Z,16.40
2023-12-11T22:21:27.895Z,15.40
2023-12-11T22:23:56.264Z,18.20
2023-12-11T22:26:24.399Z,18.60
2023-12-11T22:28:52.819Z,20.90
2023-12-11T22:31:30.955Z,20.80
2023-12-11T22:33:59.569Z,20.30
2023-12-11T22:36:28.000Z,19.50
2023-12-11T22:38:56.263Z,19.80
2023-12-11T22:41:29.390Z,18.60
2023-12-11T22:46:27.266Z,19.10
2023-12-11T22:48:57.723Z,20.40
2023-12-11T22:51:26.147Z,20.50
2023-12-11T22:53:54.517Z,19.50
2023-12-11T22:56:22.797Z,19.50
2023-12-11T22:58:51.095Z,21.50
2023-12-11T23:01:19.650Z,18.90
2023-12-11T23:03:48.566Z,18.90
2023-12-11T23:06:17.123Z,20.20
2023-12-11T23:08:45.650Z,21.60
2023-12-11T23:11:13.989Z,20.30
2023-12-11T23:13:42.263Z,20.70
2023-12-11T23:16:10.452Z,21.90
2023-12-11T23:18:38.954Z,23.70
2023-12-11T23:21:17.640Z,24.30
2023-12-11T23:23:46.976Z,24.30
2023-12-11T23:26:15.424Z,25.30
2023-12-11T23:28:43.920Z,25.40
2023-12-11T23:31:12.356Z,22.60
2023-12-11T23:33:40.806Z,22.30
2023-12-11T23:36:09.978Z,22.40
2023-12-11T23:38:38.281Z,22.10
2023-12-11T23:41:06.682Z,21.70
2023-12-11T23:43:35.326Z,20.10
2023-12-11T23:46:03.771Z,20.20
2023-12-11T23:48:32.379Z,19.00
2023-12-11T23:51:00.888Z,20.10
2023-12-11T23:53:29.234Z,18.90
2023-12-11T23:55:57.406Z,20.20
2023-12-11T23:58:25.706Z,19.20
